JA42DA RJFM-RJFK

Flight info

Callsign JA42DA
Flight time 0h 54m
Altitude 9000
Route MZE JINGU KGE
Aircraft DA42/L-V/N

Departure

Time 2026-05-08 13:19
Airport Miyazaki Airport (RJFM)

Arrival

Time 2026-05-08 14:14
Airport Kagoshima Airport (RJFK)
Time Latitude Longitude Altitude Speed Heading
2026-05-08 13:12 31.87671 131.45559 28 ft 0 kts
2026-05-08 13:18 31.87674 131.45559 28 ft 4 kts
2026-05-08 13:18 31.87738 131.45550 26 ft 15 kts 310°
2026-05-08 13:18 31.87759 131.45491 26 ft 0 kts 271°
2026-05-08 13:18 31.87752 131.45393 33 ft 36 kts 265°
2026-05-08 13:19 31.87715 131.44899 77 ft 76 kts 264°
2026-05-08 13:19 31.87672 131.44242 333 ft 83 kts 268°
2026-05-08 13:19 31.87633 131.43556 616 ft 85 kts 267°
2026-05-08 13:19 31.87588 131.42847 893 ft 88 kts 266°
2026-05-08 13:20 31.87558 131.42114 1216 ft 90 kts 276°
2026-05-08 13:20 31.87579 131.41378 1609 ft 90 kts 275°
2026-05-08 13:20 31.87572 131.40646 1953 ft 92 kts 271°
2026-05-08 13:20 31.87550 131.39897 2328 ft 91 kts 274°
2026-05-08 13:21 31.87570 131.39146 2687 ft 92 kts 278°
2026-05-08 13:21 31.87603 131.38384 3155 ft 95 kts 288°
2026-05-08 13:21 31.87629 131.37594 3469 ft 98 kts 279°
2026-05-08 13:21 31.87631 131.36791 3835 ft 99 kts 277°
2026-05-08 13:22 31.87625 131.35989 4316 ft 100 kts 279°
2026-05-08 13:22 31.87608 131.35174 4738 ft 100 kts 277°
2026-05-08 13:22 31.87598 131.34363 5192 ft 99 kts 273°
2026-05-08 13:22 31.87571 131.33550 5584 ft 104 kts 276°
2026-05-08 13:23 31.87546 131.32734 6000 ft 96 kts 276°
2026-05-08 13:23 31.87521 131.31968 6419 ft 92 kts 276°
2026-05-08 13:23 31.87500 131.31239 6910 ft 89 kts 275°
2026-05-08 13:23 31.87479 131.30518 7384 ft 87 kts 275°
2026-05-08 13:24 31.87458 131.29815 7691 ft 85 kts 275°
2026-05-08 13:24 31.87437 131.29117 7939 ft 86 kts 275°
2026-05-08 13:24 31.87415 131.28362 8014 ft 103 kts 273°
2026-05-08 13:24 31.87390 131.27438 8025 ft 119 kts 273°
2026-05-08 13:25 31.87385 131.26423 8027 ft 131 kts 273°
2026-05-08 13:25 31.87645 131.25400 8024 ft 129 kts 301°
2026-05-08 13:25 31.88041 131.24478 8038 ft 128 kts 279°
2026-05-08 13:25 31.87975 131.23435 8024 ft 124 kts 271°
2026-05-08 13:26 31.88300 131.22573 8023 ft 118 kts 308°
2026-05-08 13:26 31.88742 131.21727 7941 ft 122 kts 295°
2026-05-08 13:26 31.89105 131.20861 8030 ft 114 kts 296°
2026-05-08 13:26 31.89234 131.19952 8027 ft 112 kts 280°
2026-05-08 13:27 31.89319 131.19044 8030 ft 111 kts 278°
2026-05-08 13:27 31.89386 131.18144 8047 ft 114 kts 278°
2026-05-08 13:27 31.89448 131.17199 8030 ft 114 kts 278°
2026-05-08 13:27 31.89505 131.16274 8037 ft 113 kts 278°
2026-05-08 13:28 31.89561 131.15339 8037 ft 114 kts 277°
2026-05-08 13:28 31.89618 131.14404 8040 ft 114 kts 277°
2026-05-08 13:28 31.89673 131.13471 8040 ft 115 kts 277°
2026-05-08 13:28 31.89730 131.12524 8040 ft 117 kts 278°
2026-05-08 13:29 31.89787 131.11578 8061 ft 115 kts 278°
2026-05-08 13:29 31.89844 131.10614 8057 ft 122 kts 276°
2026-05-08 13:29 31.89903 131.09611 8048 ft 123 kts 277°
2026-05-08 13:29 31.89965 131.08598 8059 ft 125 kts 277°
2026-05-08 13:30 31.90024 131.07581 8063 ft 127 kts 277°
2026-05-08 13:30 31.90087 131.06533 8054 ft 129 kts 277°
2026-05-08 13:30 31.90166 131.05517 8065 ft 122 kts 280°
2026-05-08 13:30 31.90263 131.04530 8063 ft 120 kts 279°
2026-05-08 13:31 31.90360 131.03555 8060 ft 120 kts 280°
2026-05-08 13:31 31.90127 131.02643 8073 ft 127 kts 233°
2026-05-08 13:31 31.89478 131.01945 8060 ft 127 kts 238°
2026-05-08 13:31 31.89075 131.01039 8078 ft 125 kts 254°
2026-05-08 13:32 31.88742 131.00100 8062 ft 121 kts 254°
2026-05-08 13:32 31.88341 130.99249 8064 ft 124 kts 225°
2026-05-08 13:32 31.87489 130.99051 8081 ft 133 kts 181°
2026-05-08 13:32 31.86547 130.99150 8079 ft 139 kts 182°
2026-05-08 13:33 31.85571 130.99263 8079 ft 142 kts 182°
2026-05-08 13:33 31.84580 130.99379 8097 ft 146 kts 182°
2026-05-08 13:33 31.83538 130.99495 8071 ft 152 kts 182°
2026-05-08 13:33 31.82468 130.99607 8062 ft 156 kts 181°
2026-05-08 13:34 31.81363 130.99717 8076 ft 161 kts 182°
2026-05-08 13:34 31.80247 130.99824 8034 ft 160 kts 183°
2026-05-08 13:34 31.79153 130.99916 7924 ft 159 kts 182°
2026-05-08 13:34 31.78055 130.99997 7805 ft 157 kts 183°
2026-05-08 13:35 31.76955 131.00066 7672 ft 159 kts 182°
2026-05-08 13:35 31.75841 131.00134 7547 ft 159 kts 182°
2026-05-08 13:35 31.74748 131.00196 7396 ft 157 kts 182°
2026-05-08 13:35 31.73653 131.00251 7252 ft 158 kts 183°
2026-05-08 13:36 31.72549 131.00302 7112 ft 155 kts 182°
2026-05-08 13:36 31.71485 131.00348 6952 ft 151 kts 186°
2026-05-08 13:36 31.70585 130.99895 6807 ft 137 kts 230°
2026-05-08 13:36 31.69932 130.99129 6682 ft 131 kts 231°
2026-05-08 13:37 31.69257 130.98322 6545 ft 148 kts 231°
2026-05-08 13:37 31.68535 130.97446 6383 ft 147 kts 232°
2026-05-08 13:37 31.67834 130.96572 6232 ft 148 kts 232°
2026-05-08 13:37 31.67130 130.95690 6076 ft 148 kts 232°
2026-05-08 13:38 31.66428 130.94814 5935 ft 147 kts 232°
2026-05-08 13:38 31.65745 130.93911 5768 ft 148 kts 242°
2026-05-08 13:38 31.65418 130.92818 5639 ft 142 kts 263°
2026-05-08 13:38 31.65175 130.91672 5489 ft 146 kts 263°
2026-05-08 13:39 31.64936 130.90508 5340 ft 150 kts 263°
2026-05-08 13:39 31.64699 130.89309 5168 ft 151 kts 263°
2026-05-08 13:39 31.64442 130.88129 5045 ft 148 kts 263°
2026-05-08 13:39 31.64194 130.86971 4917 ft 147 kts 263°
2026-05-08 13:40 31.64242 130.85865 4779 ft 133 kts 298°
2026-05-08 13:40 31.64651 130.84913 4619 ft 130 kts 303°
2026-05-08 13:40 31.65053 130.84003 4473 ft 122 kts 303°
2026-05-08 13:40 31.65419 130.83147 4277 ft 111 kts 303°
2026-05-08 13:41 31.65748 130.82354 4204 ft 106 kts 302°
2026-05-08 13:41 31.66177 130.81728 3865 ft 93 kts 332°
2026-05-08 13:41 31.66649 130.81342 3724 ft 74 kts 330°
2026-05-08 13:41 31.67145 130.80953 3598 ft 100 kts 331°
2026-05-08 13:42 31.67809 130.80463 3408 ft 122 kts 332°
2026-05-08 13:42 31.68553 130.79938 3205 ft 124 kts 333°
2026-05-08 13:42 31.69260 130.79442 3000 ft 106 kts 332°
2026-05-08 13:42 31.69815 130.79060 2882 ft 81 kts 332°
2026-05-08 13:43 31.70280 130.78726 2877 ft 76 kts 331°
2026-05-08 13:43 31.70777 130.78360 2880 ft 94 kts 332°
2026-05-08 13:43 31.71390 130.77969 2663 ft 101 kts 333°
2026-05-08 13:43 31.72002 130.77575 2533 ft 101 kts 332°
2026-05-08 13:44 31.72608 130.77174 2400 ft 96 kts 331°
2026-05-08 13:44 31.73176 130.76789 2270 ft 94 kts 331°
2026-05-08 13:44 31.73755 130.76398 2141 ft 98 kts 330°
2026-05-08 13:44 31.74345 130.75999 2007 ft 98 kts 330°
2026-05-08 13:45 31.74936 130.75598 1882 ft 97 kts 329°
2026-05-08 13:45 31.75504 130.75215 1755 ft 93 kts 329°
2026-05-08 13:45 31.76051 130.74844 1623 ft 86 kts 327°
2026-05-08 13:45 31.76563 130.74500 1506 ft 87 kts 327°
2026-05-08 13:46 31.77093 130.74141 1384 ft 85 kts 328°
2026-05-08 13:46 31.77596 130.73795 1262 ft 75 kts 329°
2026-05-08 13:46 31.78085 130.73468 1146 ft 86 kts 332°
2026-05-08 13:46 31.78612 130.73105 1049 ft 90 kts 330°
2026-05-08 13:47 31.79148 130.72742 916 ft 87 kts 330°
2026-05-08 13:47 31.79588 130.72441 872 ft 60 kts 329°
2026-05-08 13:47 31.80020 130.72167 979 ft 78 kts 334°
2026-05-08 13:47 31.80517 130.71888 1281 ft 80 kts 334°
2026-05-08 13:48 31.81018 130.71622 1563 ft 77 kts 335°
2026-05-08 13:48 31.81531 130.71463 1873 ft 79 kts
2026-05-08 13:48 31.82048 130.71854 1993 ft 113 kts 53°
2026-05-08 13:48 31.82419 130.72787 1977 ft 139 kts 70°
2026-05-08 13:49 31.82477 130.73970 1971 ft 150 kts 94°
2026-05-08 13:49 31.82008 130.75084 1992 ft 157 kts 125°
2026-05-08 13:49 31.81121 130.75846 1997 ft 158 kts 150°
2026-05-08 13:49 31.80276 130.76585 1983 ft 145 kts 118°
2026-05-08 13:50 31.80165 130.77641 2005 ft 123 kts 64°
2026-05-08 13:50 31.80667 130.78443 1964 ft 113 kts 22°
2026-05-08 13:50 31.81316 130.78415 1998 ft 94 kts 333°
2026-05-08 13:50 31.81921 130.78063 1952 ft 104 kts 335°
2026-05-08 13:51 31.82537 130.77605 1984 ft 107 kts 327°
2026-05-08 13:51 31.83176 130.77100 1978 ft 111 kts 328°
2026-05-08 13:51 31.83724 130.76496 1977 ft 113 kts 299°
2026-05-08 13:51 31.83876 130.75560 1973 ft 126 kts 269°
2026-05-08 13:52 31.83379 130.74666 1974 ft 139 kts 218°
2026-05-08 13:52 31.82438 130.74354 1974 ft 147 kts 178°
2026-05-08 13:52 31.81476 130.74656 1983 ft 141 kts 148°
2026-05-08 13:52 31.80724 130.75321 1970 ft 132 kts 119°
2026-05-08 13:53 31.80659 130.76274 1976 ft 114 kts 58°
2026-05-08 13:53 31.81182 130.76863 1989 ft 104 kts 17°
2026-05-08 13:53 31.81871 130.76834 1988 ft 103 kts 333°
2026-05-08 13:53 31.82479 130.76399 1998 ft 103 kts 329°
2026-05-08 13:54 31.83103 130.75910 1975 ft 109 kts 320°
2026-05-08 13:54 31.83273 130.75048 1986 ft 120 kts 257°
2026-05-08 13:54 31.82618 130.74402 1994 ft 136 kts 196°
2026-05-08 13:54 31.81706 130.74653 1982 ft 137 kts 150°
2026-05-08 13:55 31.80992 130.75324 1971 ft 126 kts 112°
2026-05-08 13:55 31.80705 130.76269 1961 ft 123 kts 84°
2026-05-08 13:55 31.81620 130.77594 1996 ft 113 kts
2026-05-08 13:56 31.82412 130.77699 1974 ft 114 kts 351°
2026-05-08 13:56 31.83144 130.77306 1965 ft 119 kts 328°
2026-05-08 13:56 31.83814 130.76802 1980 ft 113 kts 329°
2026-05-08 13:56 31.84458 130.76299 1987 ft 111 kts 328°
2026-05-08 13:57 31.84797 130.75483 1994 ft 131 kts 272°
2026-05-08 13:57 31.84300 130.74532 1967 ft 143 kts 217°
2026-05-08 13:57 31.83353 130.74343 1986 ft 140 kts 163°
2026-05-08 13:57 31.82477 130.74874 1986 ft 144 kts 147°
2026-05-08 13:58 31.81633 130.75461 1982 ft 140 kts 147°
2026-05-08 13:58 31.81128 130.76343 1991 ft 129 kts 90°
2026-05-08 13:58 31.80623 130.77129 2009 ft 136 kts 161°
2026-05-08 13:58 31.79733 130.77425 2081 ft 129 kts 157°
2026-05-08 13:59 31.78963 130.77831 2030 ft 122 kts 153°
2026-05-08 13:59 31.78181 130.78156 1924 ft 116 kts 186°
2026-05-08 13:59 31.77528 130.77725 1580 ft 107 kts 246°
2026-05-08 13:59 31.77214 130.76999 1570 ft 94 kts 248°
2026-05-08 14:00 31.76875 130.76293 1578 ft 103 kts 246°
2026-05-08 14:00 31.76586 130.75517 1576 ft 103 kts 271°
2026-05-08 14:00 31.76771 130.74748 1571 ft 98 kts 304°
2026-05-08 14:00 31.77156 130.74168 1329 ft 87 kts 317°
2026-05-08 14:01 31.77617 130.73788 1122 ft 77 kts 321°
2026-05-08 14:01 31.78073 130.73479 1112 ft 78 kts 324°
2026-05-08 14:01 31.78540 130.73149 1074 ft 79 kts 328°
2026-05-08 14:01 31.78859 130.72930 1003 ft 80 kts 329°
2026-05-08 14:02 31.79445 130.72541 869 ft 51 kts 329°
2026-05-08 14:02 31.79762 130.72324 891 ft 68 kts 331°
2026-05-08 14:02 31.80058 130.72137 1065 ft 73 kts 329°
2026-05-08 14:02 31.80451 130.71856 1484 ft 64 kts 332°
2026-05-08 14:03 31.80910 130.71602 1800 ft 72 kts 329°
2026-05-08 14:03 31.81467 130.71545 1991 ft 97 kts 13°
2026-05-08 14:03 31.82013 130.72124 2068 ft 119 kts 57°
2026-05-08 14:03 31.82323 130.73087 2077 ft 134 kts 61°
2026-05-08 14:04 31.82627 130.74126 2161 ft 135 kts 84°
2026-05-08 14:04 31.82129 130.75086 2246 ft 147 kts 146°
2026-05-08 14:04 31.81192 130.75622 2025 ft 158 kts 153°
2026-05-08 14:04 31.80557 130.76551 1999 ft 144 kts 101°
2026-05-08 14:05 31.80676 130.77628 1998 ft 132 kts 60°
2026-05-08 14:05 31.81264 130.78319 1993 ft 115 kts 10°
2026-05-08 14:05 31.81998 130.78108 1983 ft 112 kts 333°
2026-05-08 14:05 31.82697 130.77701 1980 ft 111 kts 334°
2026-05-08 14:06 31.83388 130.77291 1973 ft 109 kts 334°
2026-05-08 14:06 31.83989 130.76794 1991 ft 109 kts 303°
2026-05-08 14:06 31.83954 130.75915 1996 ft 115 kts 251°
2026-05-08 14:06 31.83450 130.75143 1980 ft 124 kts 228°
2026-05-08 14:07 31.82648 130.74774 1985 ft 135 kts 174°
2026-05-08 14:07 31.81782 130.75212 1983 ft 136 kts 150°
2026-05-08 14:07 31.81084 130.75895 2008 ft 129 kts 112°
2026-05-08 14:07 31.81092 130.76866 2002 ft 117 kts 54°
2026-05-08 14:08 31.81667 130.77511 1988 ft 113 kts 11°
2026-05-08 14:08 31.82395 130.77308 1979 ft 108 kts 331°
2026-05-08 14:08 31.83063 130.76877 1984 ft 108 kts 331°
2026-05-08 14:08 31.83711 130.76450 1980 ft 105 kts 329°
2026-05-08 14:09 31.83989 130.75691 2011 ft 114 kts 263°
2026-05-08 14:09 31.83537 130.74841 1980 ft 131 kts 225°
2026-05-08 14:09 31.82657 130.74514 1993 ft 140 kts 183°
2026-05-08 14:09 31.81728 130.74837 1979 ft 140 kts 149°
2026-05-08 14:10 31.80916 130.75383 1974 ft 125 kts 148°
2026-05-08 14:10 31.80191 130.75875 1944 ft 119 kts 148°
2026-05-08 14:10 31.79522 130.76332 1973 ft 103 kts 148°
2026-05-08 14:10 31.78905 130.76797 1970 ft 112 kts 134°
2026-05-08 14:11 31.78624 130.77568 2045 ft 99 kts 77°
2026-05-08 14:11 31.78966 130.78191 2073 ft 89 kts 18°
2026-05-08 14:11 31.79517 130.78069 2042 ft 89 kts 316°
2026-05-08 14:11 31.79564 130.77337 1986 ft 107 kts 242°
2026-05-08 14:12 31.79066 130.76636 1987 ft 114 kts 236°
2026-05-08 14:12 31.78518 130.75948 1753 ft 114 kts 233°
2026-05-08 14:12 31.77992 130.75273 1628 ft 111 kts 235°
2026-05-08 14:12 31.77532 130.74552 1448 ft 109 kts 253°
2026-05-08 14:13 31.77720 130.73804 1244 ft 97 kts 319°
2026-05-08 14:13 31.78216 130.73372 1153 ft 81 kts 330°
2026-05-08 14:13 31.78692 130.73041 1031 ft 81 kts 330°
2026-05-08 14:13 31.79168 130.72727 930 ft 73 kts 331°
2026-05-08 14:14 31.79537 130.72474 871 ft 44 kts 330°
2026-05-08 14:14 31.79765 130.72321 874 ft 40 kts 330°
2026-05-08 14:14 31.79960 130.72189 878 ft 23 kts 330°
2026-05-08 14:14 31.80019 130.72078 881 ft 13 kts 246°
2026-05-08 14:15 31.79976 130.72001 881 ft 9 kts 222°
2026-05-08 14:15 31.79900 130.72011 879 ft 12 kts 152°
2026-05-08 14:15 31.79836 130.72053 878 ft 8 kts 148°
2026-05-08 14:15 31.79806 130.72072 877 ft 0 kts 145°
2026-05-08 14:16 31.79801 130.72075 878 ft 0 kts 148°
2026-05-08 14:16 31.79784 130.72086 877 ft 4 kts 153°
2026-05-08 14:16 31.79759 130.72101 876 ft 8 kts 148°
2026-05-08 14:16 31.79695 130.72149 875 ft 10 kts 149°
2026-05-08 14:17 31.79654 130.72144 874 ft 6 kts 241°
2026-05-08 14:17 31.79637 130.72109 875 ft 4 kts 242°
2026-05-08 14:17 31.79627 130.72088 875 ft 4 kts 254°
2026-05-08 14:17 31.79635 130.72076 877 ft 1 kts 328°
2026-05-08 14:18 31.79639 130.72073 876 ft 4 kts 324°
2026-05-08 14:18 31.79643 130.72069 875 ft 0 kts 325°